Webcam Meteoipassi more information Webcam Meteoipassi


Pisa torre orologio more information Pisa torre orologio


altri nostri siti meteo:

Pomeziameteo 1Sito sul meteo

Pomeziameteo DashboardSito sul meteo

Caput FrigorisSito sul meteo

BarcellonameteoSito sul meteo

MeteoipassiSito sul meteo

MeteotortoretoSito sul meteo

MeteospinacetoSito sul meteo

MeteoardeaSito sul meteo

MeteopalestrinaSito sul meteo

MeteocastelliSito sul meteo

MeteoGonzagaSito sul meteo

MeteoiserniaSito sul meteo

MeteolatinaSito sul meteo

RomaeurmeteoSito sul meteo

MeteomarconiaSito sul meteo



Nessuna attenzione particolare richiesta.    Non ci sono allerte meteo

Report METAR

   
LIRQ - Firenze
Dati ricevuti: Jul 28 2017 4:50 pm
Poche nuvole  
Poche nuvole  
   Vento: SW 13 km/h
Vento: SW 13 km/h
Temperatura: 33°C
P.to Rugiada: 15°C
Umidità: 34%
Barometro: 1011 hPa
Nuvole: Poche nuvole
Visibilità: oltre 10 km
dettagli cloud: Poche nuvole 1524 m
LIRQ 281450Z 23007KT 160V300 9999 FEW050 33/15 Q1011
LIRP - Lucca
Dati ricevuti: Jul 28 2017 4:15 pm
Poche nuvole  
Poche nuvole  
   Vento: West 18.5 km/h
Vento: West 18.5 km/h
Temperatura: 29°C
Indice di Calore: 31°C
P.to Rugiada: 20°C
Umidità: 58%
Barometro: 1014 hPa
Nuvole: Poche nuvole
Visibilità: oltre 10 km
dettagli cloud: Poche nuvole 914.4 m
LIRP 281415Z 26010KT 9999 FEW030 29/20 Q1014 NOSIG
LIRP - Livorno
Dati ricevuti: Jul 28 2017 4:15 pm
Poche nuvole  
Poche nuvole  
   Vento: West 18.5 km/h
Vento: West 18.5 km/h
Temperatura: 29°C
Indice di Calore: 31°C
P.to Rugiada: 20°C
Umidità: 58%
Barometro: 1014 hPa
Nuvole: Poche nuvole
Visibilità: oltre 10 km
dettagli cloud: Poche nuvole 914.4 m
LIRP 281415Z 26010KT 9999 FEW030 29/20 Q1014 NOSIG
LIMP - Parma
Dati ricevuti: Jul 28 2017 3:50 pm
Sereno  
Sereno  
   Vento: Variabile 5.6 km/h
Vento: Variabile 5.6 km/h
Temperatura: 31°C
Indice di Calore: 31°C
P.to Rugiada: 17°C
Umidità: 43%
Barometro: 1011 hPa
Visibilità: oltre 10 km
dettagli cloud: Sereno
LIMP 281350Z VRB03KT CAVOK 31/17 Q1011
LIRF - Roma
Dati ricevuti: Jul 28 2017 4:50 pm
Parzialmente nuvoloso  
Parzialmente nuvoloso  
   Vento: S 13 km/h
Vento: S 13 km/h
Temperatura: 27°C
Indice di Calore: 28°C
P.to Rugiada: 20°C
Umidità: 66%
Barometro: 1015 hPa
Nuvole: Parzialmente nuvoloso
Visibilità: oltre 10 km
dettagli cloud: Parzialmente nuvoloso 762 m,
Parzialmente nuvoloso 914.4 m
LIRF 281450Z 20007KT 150V260 9999 SCT025 SCT030 27/20 Q1015 NOSIG
 

Script sviluppato da  Saratoga-weather.org Adattato per il modello da  Weerstation Leuven

Potete trovare le nostre info meteo anche a:

European Weather Network

Weather Underground

AWEKAS

HAMweather, WeatherForYou, PWS Weather

Strumentazione usata:

Stazione meteo
Oregon Scientific WMR88

Programma gestore dati meteo
WVIEW

Server per i dati meteo
WDS-5

Provider
Anemos WDS-5

Oregon Scientific WMR88

WVIEW

WDS-5

Anemos WDS-5